sensor_id;sensor_type;location;lat;lon;timestamp;P1;durP1;ratioP1;P2;durP2;ratioP2
44026;SDS011;29696;55.698;37.460;2022-07-06T00:01:59;27.15;;;23.15;;
44026;SDS011;29696;55.698;37.460;2022-07-06T00:04:25;28.42;;;25.38;;
44026;SDS011;29696;55.698;37.460;2022-07-06T00:06:51;26.08;;;23.30;;
44026;SDS011;29696;55.698;37.460;2022-07-06T00:09:17;24.75;;;22.27;;
44026;SDS011;29696;55.698;37.460;2022-07-06T00:11:44;30.50;;;27.00;;
44026;SDS011;29696;55.698;37.460;2022-07-06T00:14:10;26.48;;;23.85;;
44026;SDS011;29696;55.698;37.460;2022-07-06T00:16:36;26.92;;;24.10;;
44026;SDS011;29696;55.698;37.460;2022-07-06T00:19:02;27.33;;;23.77;;
44026;SDS011;29696;55.698;37.460;2022-07-06T00:21:28;29.05;;;22.63;;
44026;SDS011;29696;55.698;37.460;2022-07-06T00:23:55;25.17;;;22.73;;
44026;SDS011;29696;55.698;37.460;2022-07-06T00:26:21;25.80;;;23.02;;
44026;SDS011;29696;55.698;37.460;2022-07-06T00:28:47;24.83;;;22.17;;
44026;SDS011;29696;55.698;37.460;2022-07-06T00:31:13;28.45;;;22.10;;
44026;SDS011;29696;55.698;37.460;2022-07-06T00:33:39;24.92;;;22.35;;
44026;SDS011;29696;55.698;37.460;2022-07-06T00:36:05;26.38;;;23.13;;
44026;SDS011;29696;55.698;37.460;2022-07-06T00:38:31;24.38;;;21.95;;
44026;SDS011;29696;55.698;37.460;2022-07-06T00:40:58;23.08;;;20.65;;
44026;SDS011;29696;55.698;37.460;2022-07-06T00:43:24;24.50;;;21.60;;
44026;SDS011;29696;55.698;37.460;2022-07-06T00:45:50;29.63;;;23.85;;
44026;SDS011;29696;55.698;37.460;2022-07-06T00:48:16;28.63;;;25.52;;
44026;SDS011;29696;55.698;37.460;2022-07-06T00:50:43;34.58;;;28.08;;
44026;SDS011;29696;55.698;37.460;2022-07-06T00:53:09;28.67;;;24.15;;
44026;SDS011;29696;55.698;37.460;2022-07-06T00:55:36;26.45;;;23.75;;
44026;SDS011;29696;55.698;37.460;2022-07-06T00:58:07;26.48;;;23.52;;
44026;SDS011;29696;55.698;37.460;2022-07-06T01:00:35;25.55;;;23.13;;
44026;SDS011;29696;55.698;37.460;2022-07-06T01:03:02;26.17;;;23.55;;
44026;SDS011;29696;55.698;37.460;2022-07-06T01:05:28;27.52;;;24.75;;
44026;SDS011;29696;55.698;37.460;2022-07-06T01:07:55;26.33;;;23.55;;
44026;SDS011;29696;55.698;37.460;2022-07-06T01:10:22;24.42;;;21.98;;
44026;SDS011;29696;55.698;37.460;2022-07-06T01:12:48;27.73;;;24.85;;
44026;SDS011;29696;55.698;37.460;2022-07-06T01:15:20;29.52;;;25.08;;
44026;SDS011;29696;55.698;37.460;2022-07-06T01:17:48;25.10;;;22.63;;
44026;SDS011;29696;55.698;37.460;2022-07-06T01:23:01;28.10;;;24.23;;
44026;SDS011;29696;55.698;37.460;2022-07-06T01:25:28;24.67;;;22.35;;
44026;SDS011;29696;55.698;37.460;2022-07-06T01:27:54;27.17;;;23.40;;
44026;SDS011;29696;55.698;37.460;2022-07-06T01:30:20;26.88;;;24.05;;
44026;SDS011;29696;55.698;37.460;2022-07-06T01:32:47;30.27;;;23.95;;
44026;SDS011;29696;55.698;37.460;2022-07-06T01:35:15;26.70;;;23.92;;
44026;SDS011;29696;55.698;37.460;2022-07-06T01:37:41;27.35;;;24.42;;
44026;SDS011;29696;55.698;37.460;2022-07-06T01:40:09;29.10;;;22.75;;
44026;SDS011;29696;55.698;37.460;2022-07-06T01:42:36;26.02;;;23.60;;
44026;SDS011;29696;55.698;37.460;2022-07-06T01:45:04;27.00;;;23.80;;
44026;SDS011;29696;55.698;37.460;2022-07-06T01:47:31;27.52;;;23.08;;
44026;SDS011;29696;55.698;37.460;2022-07-06T01:49:59;25.90;;;23.50;;
44026;SDS011;29696;55.698;37.460;2022-07-06T01:52:29;27.10;;;24.38;;
44026;SDS011;29696;55.698;37.460;2022-07-06T01:54:56;26.60;;;23.60;;
44026;SDS011;29696;55.698;37.460;2022-07-06T01:57:23;26.20;;;23.50;;
44026;SDS011;29696;55.698;37.460;2022-07-06T01:59:49;34.15;;;30.55;;
44026;SDS011;29696;55.698;37.460;2022-07-06T02:02:17;36.33;;;29.80;;
44026;SDS011;29696;55.698;37.460;2022-07-06T02:04:44;27.23;;;23.25;;
44026;SDS011;29696;55.698;37.460;2022-07-06T02:07:11;27.02;;;24.27;;
44026;SDS011;29696;55.698;37.460;2022-07-06T02:09:37;26.05;;;23.45;;
44026;SDS011;29696;55.698;37.460;2022-07-06T02:12:04;24.67;;;22.27;;
44026;SDS011;29696;55.698;37.460;2022-07-06T02:14:30;26.05;;;23.27;;
44026;SDS011;29696;55.698;37.460;2022-07-06T02:16:57;26.30;;;23.70;;
44026;SDS011;29696;55.698;37.460;2022-07-06T02:19:24;26.50;;;23.73;;
44026;SDS011;29696;55.698;37.460;2022-07-06T02:21:50;25.23;;;22.73;;
44026;SDS011;29696;55.698;37.460;2022-07-06T02:24:16;26.85;;;23.40;;
44026;SDS011;29696;55.698;37.460;2022-07-06T02:26:43;29.35;;;21.88;;
44026;SDS011;29696;55.698;37.460;2022-07-06T02:29:09;23.67;;;21.15;;
44026;SDS011;29696;55.698;37.460;2022-07-06T02:31:36;24.75;;;22.10;;
44026;SDS011;29696;55.698;37.460;2022-07-06T02:34:02;29.70;;;20.85;;
44026;SDS011;29696;55.698;37.460;2022-07-06T02:36:28;25.00;;;22.45;;
44026;SDS011;29696;55.698;37.460;2022-07-06T02:38:54;24.92;;;22.27;;
44026;SDS011;29696;55.698;37.460;2022-07-06T02:41:21;26.40;;;23.40;;
44026;SDS011;29696;55.698;37.460;2022-07-06T02:43:48;28.05;;;22.15;;
44026;SDS011;29696;55.698;37.460;2022-07-06T02:46:15;24.15;;;21.63;;
44026;SDS011;29696;55.698;37.460;2022-07-06T02:48:43;25.77;;;23.20;;
44026;SDS011;29696;55.698;37.460;2022-07-06T02:51:09;25.33;;;22.63;;
44026;SDS011;29696;55.698;37.460;2022-07-06T02:53:36;25.35;;;22.50;;
44026;SDS011;29696;55.698;37.460;2022-07-06T02:56:02;23.75;;;21.38;;
44026;SDS011;29696;55.698;37.460;2022-07-06T02:58:30;22.52;;;19.65;;
44026;SDS011;29696;55.698;37.460;2022-07-06T03:00:56;23.65;;;21.05;;
44026;SDS011;29696;55.698;37.460;2022-07-06T03:03:22;24.48;;;21.38;;
44026;SDS011;29696;55.698;37.460;2022-07-06T03:05:49;22.38;;;20.08;;
44026;SDS011;29696;55.698;37.460;2022-07-06T03:08:17;22.63;;;20.35;;
44026;SDS011;29696;55.698;37.460;2022-07-06T03:10:44;22.92;;;20.50;;
44026;SDS011;29696;55.698;37.460;2022-07-06T03:13:11;24.83;;;19.48;;
44026;SDS011;29696;55.698;37.460;2022-07-06T03:15:37;26.13;;;22.58;;
44026;SDS011;29696;55.698;37.460;2022-07-06T03:18:03;22.17;;;19.85;;
44026;SDS011;29696;55.698;37.460;2022-07-06T03:20:30;22.15;;;20.05;;
44026;SDS011;29696;55.698;37.460;2022-07-06T03:22:57;24.55;;;19.35;;
44026;SDS011;29696;55.698;37.460;2022-07-06T03:25:23;22.20;;;19.02;;
44026;SDS011;29696;55.698;37.460;2022-07-06T03:27:50;26.13;;;23.73;;
44026;SDS011;29696;55.698;37.460;2022-07-06T03:30:18;19.27;;;17.38;;
44026;SDS011;29696;55.698;37.460;2022-07-06T03:32:50;18.55;;;16.80;;
44026;SDS011;29696;55.698;37.460;2022-07-06T03:35:17;19.00;;;17.02;;
44026;SDS011;29696;55.698;37.460;2022-07-06T03:37:45;18.00;;;16.30;;
44026;SDS011;29696;55.698;37.460;2022-07-06T03:40:12;20.58;;;16.17;;
44026;SDS011;29696;55.698;37.460;2022-07-06T03:42:41;18.40;;;16.33;;
44026;SDS011;29696;55.698;37.460;2022-07-06T03:45:09;18.08;;;16.23;;
44026;SDS011;29696;55.698;37.460;2022-07-06T03:47:36;17.27;;;15.48;;
44026;SDS011;29696;55.698;37.460;2022-07-06T03:50:03;19.38;;;15.60;;
44026;SDS011;29696;55.698;37.460;2022-07-06T03:52:30;17.60;;;15.93;;
44026;SDS011;29696;55.698;37.460;2022-07-06T03:54:56;17.58;;;15.25;;
44026;SDS011;29696;55.698;37.460;2022-07-06T03:57:27;19.33;;;16.33;;
44026;SDS011;29696;55.698;37.460;2022-07-06T03:59:55;17.45;;;15.65;;
44026;SDS011;29696;55.698;37.460;2022-07-06T04:02:22;15.57;;;14.02;;
44026;SDS011;29696;55.698;37.460;2022-07-06T04:04:51;15.75;;;14.25;;
44026;SDS011;29696;55.698;37.460;2022-07-06T04:07:17;19.20;;;14.15;;
44026;SDS011;29696;55.698;37.460;2022-07-06T04:09:44;17.58;;;15.20;;
44026;SDS011;29696;55.698;37.460;2022-07-06T04:12:11;17.65;;;15.93;;
44026;SDS011;29696;55.698;37.460;2022-07-06T04:14:37;19.08;;;13.95;;
44026;SDS011;29696;55.698;37.460;2022-07-06T04:17:04;18.42;;;16.83;;
44026;SDS011;29696;55.698;37.460;2022-07-06T04:19:51;21.02;;;18.15;;
44026;SDS011;29696;55.698;37.460;2022-07-06T04:22:17;18.52;;;16.63;;
44026;SDS011;29696;55.698;37.460;2022-07-06T04:24:43;19.92;;;18.15;;
44026;SDS011;29696;55.698;37.460;2022-07-06T04:27:10;19.33;;;17.13;;
44026;SDS011;29696;55.698;37.460;2022-07-06T04:29:37;19.58;;;17.52;;
44026;SDS011;29696;55.698;37.460;2022-07-06T04:32:03;19.42;;;17.67;;
44026;SDS011;29696;55.698;37.460;2022-07-06T04:34:30;18.02;;;15.35;;
44026;SDS011;29696;55.698;37.460;2022-07-06T04:36:56;17.77;;;15.98;;
44026;SDS011;29696;55.698;37.460;2022-07-06T04:39:22;16.02;;;14.45;;
44026;SDS011;29696;55.698;37.460;2022-07-06T04:41:49;14.55;;;13.15;;
44026;SDS011;29696;55.698;37.460;2022-07-06T04:44:15;14.10;;;12.57;;
44026;SDS011;29696;55.698;37.460;2022-07-06T04:46:41;14.20;;;12.88;;
44026;SDS011;29696;55.698;37.460;2022-07-06T04:49:08;14.60;;;12.27;;
44026;SDS011;29696;55.698;37.460;2022-07-06T04:51:35;12.07;;;10.88;;
44026;SDS011;29696;55.698;37.460;2022-07-06T04:54:02;17.27;;;12.43;;
44026;SDS011;29696;55.698;37.460;2022-07-06T04:56:30;13.98;;;12.55;;
44026;SDS011;29696;55.698;37.460;2022-07-06T04:58:57;14.88;;;12.27;;
44026;SDS011;29696;55.698;37.460;2022-07-06T05:01:24;13.40;;;12.27;;
44026;SDS011;29696;55.698;37.460;2022-07-06T05:03:50;15.23;;;12.07;;
44026;SDS011;29696;55.698;37.460;2022-07-06T05:06:20;12.23;;;11.13;;
44026;SDS011;29696;55.698;37.460;2022-07-06T05:08:46;13.60;;;10.70;;
44026;SDS011;29696;55.698;37.460;2022-07-06T05:11:12;15.32;;;10.88;;
44026;SDS011;29696;55.698;37.460;2022-07-06T05:13:40;18.33;;;11.05;;
44026;SDS011;29696;55.698;37.460;2022-07-06T05:16:06;17.10;;;10.05;;
44026;SDS011;29696;55.698;37.460;2022-07-06T05:18:33;12.32;;;10.93;;
44026;SDS011;29696;55.698;37.460;2022-07-06T05:21:00;10.70;;;9.80;;
44026;SDS011;29696;55.698;37.460;2022-07-06T05:23:26;12.20;;;10.63;;
44026;SDS011;29696;55.698;37.460;2022-07-06T05:25:55;14.35;;;12.25;;
44026;SDS011;29696;55.698;37.460;2022-07-06T05:28:21;12.48;;;11.23;;
44026;SDS011;29696;55.698;37.460;2022-07-06T05:30:48;16.60;;;10.90;;
44026;SDS011;29696;55.698;37.460;2022-07-06T05:33:16;23.02;;;11.23;;
44026;SDS011;29696;55.698;37.460;2022-07-06T05:35:42;17.35;;;11.75;;
44026;SDS011;29696;55.698;37.460;2022-07-06T05:38:08;21.58;;;12.48;;
44026;SDS011;29696;55.698;37.460;2022-07-06T05:40:36;20.33;;;11.98;;
44026;SDS011;29696;55.698;37.460;2022-07-06T05:43:06;33.92;;;13.43;;
44026;SDS011;29696;55.698;37.460;2022-07-06T05:45:34;18.63;;;10.73;;
44026;SDS011;29696;55.698;37.460;2022-07-06T05:48:01;25.27;;;12.45;;
44026;SDS011;29696;55.698;37.460;2022-07-06T05:50:47;38.58;;;14.40;;
44026;SDS011;29696;55.698;37.460;2022-07-06T05:53:13;14.90;;;11.27;;
44026;SDS011;29696;55.698;37.460;2022-07-06T05:55:40;14.88;;;10.43;;
44026;SDS011;29696;55.698;37.460;2022-07-06T05:58:06;23.83;;;11.63;;
44026;SDS011;29696;55.698;37.460;2022-07-06T06:00:33;26.42;;;11.98;;
44026;SDS011;29696;55.698;37.460;2022-07-06T06:03:05;13.88;;;11.23;;
44026;SDS011;29696;55.698;37.460;2022-07-06T06:05:32;12.35;;;9.52;;
44026;SDS011;29696;55.698;37.460;2022-07-06T06:08:03;12.23;;;11.02;;
44026;SDS011;29696;55.698;37.460;2022-07-06T06:10:29;13.13;;;10.18;;
44026;SDS011;29696;55.698;37.460;2022-07-06T06:12:59;14.25;;;11.18;;
44026;SDS011;29696;55.698;37.460;2022-07-06T06:15:25;12.90;;;11.60;;
44026;SDS011;29696;55.698;37.460;2022-07-06T06:17:52;14.95;;;12.25;;
44026;SDS011;29696;55.698;37.460;2022-07-06T06:20:18;14.02;;;9.98;;
44026;SDS011;29696;55.698;37.460;2022-07-06T06:22:48;14.93;;;10.20;;
44026;SDS011;29696;55.698;37.460;2022-07-06T06:25:17;17.23;;;10.30;;
44026;SDS011;29696;55.698;37.460;2022-07-06T06:27:45;13.77;;;10.65;;
44026;SDS011;29696;55.698;37.460;2022-07-06T06:30:12;15.38;;;11.60;;
44026;SDS011;29696;55.698;37.460;2022-07-06T06:32:39;17.80;;;11.38;;
44026;SDS011;29696;55.698;37.460;2022-07-06T06:35:06;12.55;;;9.55;;
44026;SDS011;29696;55.698;37.460;2022-07-06T06:37:33;21.33;;;11.75;;
44026;SDS011;29696;55.698;37.460;2022-07-06T06:40:00;19.52;;;12.07;;
44026;SDS011;29696;55.698;37.460;2022-07-06T06:42:28;10.65;;;9.48;;
44026;SDS011;29696;55.698;37.460;2022-07-06T06:44:56;13.15;;;9.65;;
44026;SDS011;29696;55.698;37.460;2022-07-06T06:47:23;15.15;;;10.75;;
44026;SDS011;29696;55.698;37.460;2022-07-06T06:49:49;16.08;;;10.77;;
44026;SDS011;29696;55.698;37.460;2022-07-06T06:52:15;16.63;;;9.75;;
44026;SDS011;29696;55.698;37.460;2022-07-06T06:54:42;15.90;;;10.98;;
44026;SDS011;29696;55.698;37.460;2022-07-06T06:57:08;19.17;;;9.77;;
44026;SDS011;29696;55.698;37.460;2022-07-06T06:59:36;30.80;;;11.77;;
44026;SDS011;29696;55.698;37.460;2022-07-06T07:02:03;15.52;;;9.70;;
44026;SDS011;29696;55.698;37.460;2022-07-06T07:04:29;14.07;;;9.45;;
44026;SDS011;29696;55.698;37.460;2022-07-06T07:06:56;16.30;;;9.85;;
44026;SDS011;29696;55.698;37.460;2022-07-06T07:09:22;9.98;;;7.93;;
44026;SDS011;29696;55.698;37.460;2022-07-06T07:11:49;11.07;;;7.07;;
44026;SDS011;29696;55.698;37.460;2022-07-06T07:14:15;25.02;;;9.07;;
44026;SDS011;29696;55.698;37.460;2022-07-06T07:16:42;8.90;;;7.07;;
44026;SDS011;29696;55.698;37.460;2022-07-06T07:19:08;8.50;;;6.53;;
44026;SDS011;29696;55.698;37.460;2022-07-06T07:21:34;8.10;;;6.75;;
44026;SDS011;29696;55.698;37.460;2022-07-06T07:24:00;7.60;;;6.93;;
44026;SDS011;29696;55.698;37.460;2022-07-06T07:26:26;8.35;;;6.97;;
44026;SDS011;29696;55.698;37.460;2022-07-06T07:28:53;8.05;;;7.25;;
44026;SDS011;29696;55.698;37.460;2022-07-06T07:31:19;8.55;;;7.65;;
44026;SDS011;29696;55.698;37.460;2022-07-06T07:33:45;16.80;;;10.77;;
44026;SDS011;29696;55.698;37.460;2022-07-06T07:36:12;27.77;;;11.80;;
44026;SDS011;29696;55.698;37.460;2022-07-06T07:38:38;16.33;;;10.68;;
44026;SDS011;29696;55.698;37.460;2022-07-06T07:41:04;17.88;;;10.48;;
44026;SDS011;29696;55.698;37.460;2022-07-06T07:43:32;23.92;;;11.77;;
44026;SDS011;29696;55.698;37.460;2022-07-06T07:45:58;13.90;;;10.55;;
44026;SDS011;29696;55.698;37.460;2022-07-06T07:48:24;11.93;;;8.98;;
44026;SDS011;29696;55.698;37.460;2022-07-06T07:50:50;11.52;;;9.85;;
44026;SDS011;29696;55.698;37.460;2022-07-06T07:53:16;11.23;;;10.13;;
44026;SDS011;29696;55.698;37.460;2022-07-06T07:55:43;20.35;;;9.95;;
44026;SDS011;29696;55.698;37.460;2022-07-06T07:58:09;14.18;;;9.73;;
44026;SDS011;29696;55.698;37.460;2022-07-06T08:00:35;16.48;;;9.82;;
44026;SDS011;29696;55.698;37.460;2022-07-06T08:03:02;16.27;;;10.75;;
44026;SDS011;29696;55.698;37.460;2022-07-06T08:05:28;17.27;;;9.35;;
44026;SDS011;29696;55.698;37.460;2022-07-06T08:07:55;9.88;;;8.65;;
44026;SDS011;29696;55.698;37.460;2022-07-06T08:10:21;9.43;;;8.63;;
44026;SDS011;29696;55.698;37.460;2022-07-06T08:12:47;9.27;;;8.40;;
44026;SDS011;29696;55.698;37.460;2022-07-06T08:15:14;8.48;;;7.72;;
44026;SDS011;29696;55.698;37.460;2022-07-06T08:17:40;8.85;;;8.02;;
44026;SDS011;29696;55.698;37.460;2022-07-06T08:20:06;8.40;;;7.70;;
44026;SDS011;29696;55.698;37.460;2022-07-06T08:22:35;9.07;;;8.18;;
44026;SDS011;29696;55.698;37.460;2022-07-06T08:25:02;10.25;;;9.45;;
44026;SDS011;29696;55.698;37.460;2022-07-06T08:27:29;9.98;;;8.98;;
44026;SDS011;29696;55.698;37.460;2022-07-06T08:29:55;10.40;;;9.40;;
44026;SDS011;29696;55.698;37.460;2022-07-06T08:32:21;9.88;;;8.98;;
44026;SDS011;29696;55.698;37.460;2022-07-06T08:34:48;10.48;;;9.65;;
44026;SDS011;29696;55.698;37.460;2022-07-06T08:37:14;12.48;;;10.00;;
44026;SDS011;29696;55.698;37.460;2022-07-06T08:39:40;13.27;;;9.93;;
44026;SDS011;29696;55.698;37.460;2022-07-06T08:42:07;11.05;;;9.50;;
44026;SDS011;29696;55.698;37.460;2022-07-06T08:44:34;12.18;;;9.50;;
44026;SDS011;29696;55.698;37.460;2022-07-06T08:47:04;11.65;;;9.82;;
44026;SDS011;29696;55.698;37.460;2022-07-06T08:49:34;11.25;;;10.32;;
44026;SDS011;29696;55.698;37.460;2022-07-06T08:52:02;10.13;;;9.23;;
44026;SDS011;29696;55.698;37.460;2022-07-06T08:54:30;24.30;;;11.52;;
44026;SDS011;29696;55.698;37.460;2022-07-06T08:56:56;15.75;;;11.48;;
44026;SDS011;29696;55.698;37.460;2022-07-06T08:59:25;20.98;;;15.30;;
44026;SDS011;29696;55.698;37.460;2022-07-06T09:01:51;15.15;;;13.32;;
44026;SDS011;29696;55.698;37.460;2022-07-06T09:04:18;13.05;;;11.73;;
44026;SDS011;29696;55.698;37.460;2022-07-06T09:06:48;16.25;;;14.65;;
44026;SDS011;29696;55.698;37.460;2022-07-06T09:09:21;16.98;;;12.73;;
44026;SDS011;29696;55.698;37.460;2022-07-06T09:11:50;15.00;;;12.50;;
44026;SDS011;29696;55.698;37.460;2022-07-06T09:14:16;35.83;;;16.50;;
44026;SDS011;29696;55.698;37.460;2022-07-06T09:16:45;15.30;;;13.02;;
44026;SDS011;29696;55.698;37.460;2022-07-06T09:19:12;13.07;;;11.73;;
44026;SDS011;29696;55.698;37.460;2022-07-06T09:21:39;12.30;;;11.18;;
44026;SDS011;29696;55.698;37.460;2022-07-06T09:24:08;16.85;;;12.15;;
44026;SDS011;29696;55.698;37.460;2022-07-06T09:26:37;29.83;;;14.43;;
44026;SDS011;29696;55.698;37.460;2022-07-06T09:29:04;15.13;;;11.15;;
44026;SDS011;29696;55.698;37.460;2022-07-06T09:31:30;13.50;;;11.90;;
44026;SDS011;29696;55.698;37.460;2022-07-06T09:33:58;17.05;;;12.68;;
44026;SDS011;29696;55.698;37.460;2022-07-06T09:36:38;14.63;;;12.80;;
44026;SDS011;29696;55.698;37.460;2022-07-06T09:42:03;16.30;;;14.77;;
44026;SDS011;29696;55.698;37.460;2022-07-06T09:44:31;17.15;;;15.43;;
44026;SDS011;29696;55.698;37.460;2022-07-06T09:46:59;11.10;;;10.10;;
44026;SDS011;29696;55.698;37.460;2022-07-06T09:49:27;11.05;;;10.05;;
44026;SDS011;29696;55.698;37.460;2022-07-06T09:51:55;11.98;;;10.82;;
44026;SDS011;29696;55.698;37.460;2022-07-06T09:54:24;12.60;;;11.27;;
44026;SDS011;29696;55.698;37.460;2022-07-06T09:56:52;14.23;;;12.90;;
44026;SDS011;29696;55.698;37.460;2022-07-06T09:59:20;14.63;;;12.68;;
44026;SDS011;29696;55.698;37.460;2022-07-06T10:01:50;14.15;;;12.65;;
44026;SDS011;29696;55.698;37.460;2022-07-06T10:04:18;13.70;;;12.07;;
44026;SDS011;29696;55.698;37.460;2022-07-06T10:06:46;14.13;;;12.77;;
44026;SDS011;29696;55.698;37.460;2022-07-06T10:09:13;14.05;;;12.65;;
44026;SDS011;29696;55.698;37.460;2022-07-06T10:11:43;12.25;;;11.23;;
44026;SDS011;29696;55.698;37.460;2022-07-06T10:14:14;13.63;;;12.23;;
44026;SDS011;29696;55.698;37.460;2022-07-06T10:16:54;12.27;;;11.15;;
44026;SDS011;29696;55.698;37.460;2022-07-06T10:19:22;12.63;;;11.52;;
44026;SDS011;29696;55.698;37.460;2022-07-06T10:21:49;15.43;;;12.52;;
44026;SDS011;29696;55.698;37.460;2022-07-06T10:24:17;13.27;;;11.80;;
44026;SDS011;29696;55.698;37.460;2022-07-06T10:26:46;12.65;;;11.38;;
44026;SDS011;29696;55.698;37.460;2022-07-06T10:29:13;17.67;;;14.80;;
44026;SDS011;29696;55.698;37.460;2022-07-06T10:31:40;16.88;;;12.32;;
44026;SDS011;29696;55.698;37.460;2022-07-06T10:34:11;13.15;;;10.82;;
44026;SDS011;29696;55.698;37.460;2022-07-06T10:36:40;11.63;;;10.55;;
44026;SDS011;29696;55.698;37.460;2022-07-06T10:39:09;13.57;;;12.25;;
44026;SDS011;29696;55.698;37.460;2022-07-06T10:41:55;12.15;;;11.07;;
44026;SDS011;29696;55.698;37.460;2022-07-06T10:44:22;12.10;;;10.93;;
44026;SDS011;29696;55.698;37.460;2022-07-06T10:46:57;12.23;;;11.07;;
44026;SDS011;29696;55.698;37.460;2022-07-06T10:49:25;11.93;;;10.82;;
44026;SDS011;29696;55.698;37.460;2022-07-06T10:51:53;10.27;;;9.48;;
44026;SDS011;29696;55.698;37.460;2022-07-06T10:54:22;13.48;;;12.07;;
44026;SDS011;29696;55.698;37.460;2022-07-06T10:56:50;10.60;;;9.50;;
44026;SDS011;29696;55.698;37.460;2022-07-06T10:59:21;10.50;;;9.50;;
44026;SDS011;29696;55.698;37.460;2022-07-06T11:04:56;10.32;;;9.27;;
44026;SDS011;29696;55.698;37.460;2022-07-06T11:07:22;9.50;;;8.65;;
44026;SDS011;29696;55.698;37.460;2022-07-06T11:09:55;11.27;;;10.18;;
44026;SDS011;29696;55.698;37.460;2022-07-06T11:12:25;13.07;;;10.27;;
44026;SDS011;29696;55.698;37.460;2022-07-06T11:14:52;10.23;;;9.27;;
44026;SDS011;29696;55.698;37.460;2022-07-06T11:17:19;10.43;;;9.48;;
44026;SDS011;29696;55.698;37.460;2022-07-06T11:19:57;16.08;;;11.15;;
44026;SDS011;29696;55.698;37.460;2022-07-06T11:22:35;12.55;;;10.65;;
44026;SDS011;29696;55.698;37.460;2022-07-06T11:25:03;11.05;;;10.05;;
44026;SDS011;29696;55.698;37.460;2022-07-06T11:27:30;13.90;;;10.07;;
44026;SDS011;29696;55.698;37.460;2022-07-06T11:29:57;11.13;;;9.52;;
44026;SDS011;29696;55.698;37.460;2022-07-06T11:32:27;10.60;;;9.60;;
44026;SDS011;29696;55.698;37.460;2022-07-06T11:34:53;10.30;;;9.32;;
44026;SDS011;29696;55.698;37.460;2022-07-06T11:37:19;10.85;;;9.05;;
44026;SDS011;29696;55.698;37.460;2022-07-06T11:39:46;10.93;;;9.63;;
44026;SDS011;29696;55.698;37.460;2022-07-06T11:42:14;9.52;;;8.65;;
44026;SDS011;29696;55.698;37.460;2022-07-06T11:44:45;9.95;;;8.77;;
44026;SDS011;29696;55.698;37.460;2022-07-06T11:47:12;9.68;;;8.15;;
44026;SDS011;29696;55.698;37.460;2022-07-06T11:49:39;12.90;;;9.93;;
44026;SDS011;29696;55.698;37.460;2022-07-06T11:52:10;9.55;;;8.70;;
44026;SDS011;29696;55.698;37.460;2022-07-06T11:54:38;9.68;;;8.45;;
44026;SDS011;29696;55.698;37.460;2022-07-06T11:57:08;12.02;;;7.90;;
44026;SDS011;29696;55.698;37.460;2022-07-06T11:59:37;8.73;;;7.93;;
44026;SDS011;29696;55.698;37.460;2022-07-06T12:02:05;10.13;;;9.13;;
44026;SDS011;29696;55.698;37.460;2022-07-06T12:04:37;10.95;;;9.85;;
44026;SDS011;29696;55.698;37.460;2022-07-06T12:07:11;16.27;;;8.82;;
44026;SDS011;29696;55.698;37.460;2022-07-06T12:09:40;9.32;;;8.43;;
44026;SDS011;29696;55.698;37.460;2022-07-06T12:12:13;9.82;;;8.82;;
44026;SDS011;29696;55.698;37.460;2022-07-06T12:14:41;9.02;;;7.15;;
44026;SDS011;29696;55.698;37.460;2022-07-06T12:17:12;7.60;;;6.90;;
44026;SDS011;29696;55.698;37.460;2022-07-06T12:19:40;8.25;;;7.55;;
44026;SDS011;29696;55.698;37.460;2022-07-06T12:22:07;10.55;;;9.07;;
44026;SDS011;29696;55.698;37.460;2022-07-06T12:24:34;8.23;;;6.88;;
44026;SDS011;29696;55.698;37.460;2022-07-06T12:27:36;8.73;;;7.88;;
44026;SDS011;29696;55.698;37.460;2022-07-06T12:30:07;8.52;;;7.72;;
44026;SDS011;29696;55.698;37.460;2022-07-06T12:32:35;9.02;;;8.13;;
44026;SDS011;29696;55.698;37.460;2022-07-06T12:35:11;9.25;;;8.00;;
44026;SDS011;29696;55.698;37.460;2022-07-06T12:37:37;9.25;;;8.40;;
44026;SDS011;29696;55.698;37.460;2022-07-06T12:40:24;22.90;;;10.30;;
44026;SDS011;29696;55.698;37.460;2022-07-06T12:42:52;18.85;;;9.70;;
44026;SDS011;29696;55.698;37.460;2022-07-06T12:45:18;10.07;;;9.00;;
44026;SDS011;29696;55.698;37.460;2022-07-06T12:47:58;21.30;;;8.35;;
44026;SDS011;29696;55.698;37.460;2022-07-06T12:50:33;9.30;;;8.32;;
44026;SDS011;29696;55.698;37.460;2022-07-06T12:53:02;9.25;;;8.32;;
44026;SDS011;29696;55.698;37.460;2022-07-06T12:55:29;10.48;;;7.70;;
44026;SDS011;29696;55.698;37.460;2022-07-06T12:57:57;9.25;;;8.35;;
44026;SDS011;29696;55.698;37.460;2022-07-06T13:00:24;11.65;;;9.90;;
44026;SDS011;29696;55.698;37.460;2022-07-06T13:02:52;12.05;;;10.02;;
44026;SDS011;29696;55.698;37.460;2022-07-06T13:05:23;15.77;;;10.90;;
44026;SDS011;29696;55.698;37.460;2022-07-06T13:07:54;22.08;;;11.60;;
44026;SDS011;29696;55.698;37.460;2022-07-06T13:10:22;26.95;;;15.18;;
44026;SDS011;29696;55.698;37.460;2022-07-06T13:12:50;24.05;;;13.27;;
44026;SDS011;29696;55.698;37.460;2022-07-06T13:15:16;34.72;;;14.60;;
44026;SDS011;29696;55.698;37.460;2022-07-06T13:17:43;13.20;;;11.70;;
44026;SDS011;29696;55.698;37.460;2022-07-06T13:20:12;14.88;;;11.00;;
44026;SDS011;29696;55.698;37.460;2022-07-06T13:22:39;15.88;;;12.13;;
44026;SDS011;29696;55.698;37.460;2022-07-06T13:25:06;23.60;;;11.57;;
44026;SDS011;29696;55.698;37.460;2022-07-06T13:27:33;18.17;;;13.07;;
44026;SDS011;29696;55.698;37.460;2022-07-06T13:29:59;18.67;;;11.88;;
44026;SDS011;29696;55.698;37.460;2022-07-06T13:32:26;27.50;;;16.23;;
44026;SDS011;29696;55.698;37.460;2022-07-06T13:34:52;23.75;;;13.20;;
44026;SDS011;29696;55.698;37.460;2022-07-06T13:37:19;24.35;;;13.68;;
44026;SDS011;29696;55.698;37.460;2022-07-06T13:39:45;25.17;;;11.00;;
44026;SDS011;29696;55.698;37.460;2022-07-06T13:42:12;22.05;;;13.70;;
44026;SDS011;29696;55.698;37.460;2022-07-06T13:44:38;35.83;;;13.57;;
44026;SDS011;29696;55.698;37.460;2022-07-06T13:47:04;19.42;;;11.38;;
44026;SDS011;29696;55.698;37.460;2022-07-06T13:49:31;16.42;;;12.27;;
44026;SDS011;29696;55.698;37.460;2022-07-06T13:51:57;22.35;;;11.13;;
44026;SDS011;29696;55.698;37.460;2022-07-06T13:54:29;18.63;;;12.73;;
44026;SDS011;29696;55.698;37.460;2022-07-06T13:56:56;23.10;;;12.52;;
44026;SDS011;29696;55.698;37.460;2022-07-06T13:59:22;25.70;;;12.60;;
44026;SDS011;29696;55.698;37.460;2022-07-06T14:01:48;23.23;;;12.98;;
44026;SDS011;29696;55.698;37.460;2022-07-06T14:04:15;21.60;;;16.95;;
44026;SDS011;29696;55.698;37.460;2022-07-06T14:06:41;22.65;;;13.60;;
44026;SDS011;29696;55.698;37.460;2022-07-06T14:09:07;20.13;;;13.13;;
44026;SDS011;29696;55.698;37.460;2022-07-06T14:11:33;15.15;;;11.63;;
44026;SDS011;29696;55.698;37.460;2022-07-06T14:14:00;16.60;;;11.70;;
44026;SDS011;29696;55.698;37.460;2022-07-06T14:16:26;17.83;;;11.88;;
44026;SDS011;29696;55.698;37.460;2022-07-06T14:18:53;25.85;;;13.35;;
44026;SDS011;29696;55.698;37.460;2022-07-06T14:21:19;29.13;;;16.15;;
44026;SDS011;29696;55.698;37.460;2022-07-06T14:23:45;25.20;;;14.43;;
44026;SDS011;29696;55.698;37.460;2022-07-06T14:26:12;25.17;;;13.43;;